createdAt,value
2022-08-07T00:00:57.050Z,1010.63
2022-08-07T00:02:40.681Z,1010.67
2022-08-07T00:02:57.037Z,1010.69
2022-08-07T00:03:56.048Z,1010.73
2022-08-07T00:04:56.071Z,1010.74
2022-08-07T00:05:55.999Z,1010.72
2022-08-07T00:06:55.978Z,1010.76
2022-08-07T00:07:58.492Z,1010.76
2022-08-07T00:08:55.977Z,1010.78
2022-08-07T00:10:19.023Z,1010.74
2022-08-07T00:10:58.375Z,1010.77
2022-08-07T00:11:58.758Z,1010.73
2022-08-07T00:12:59.747Z,1010.73
2022-08-07T00:13:56.876Z,1010.75
2022-08-07T00:14:55.896Z,1010.75
2022-08-07T00:15:55.869Z,1010.76
2022-08-07T00:16:55.839Z,1010.73
2022-08-07T00:17:55.819Z,1010.78
2022-08-07T00:18:55.836Z,1010.76
2022-08-07T00:20:01.473Z,1010.73
2022-08-07T00:20:57.506Z,1010.71
2022-08-07T00:22:02.323Z,1010.74
2022-08-07T00:22:56.758Z,1010.75
2022-08-07T00:23:55.759Z,1010.75
2022-08-07T00:24:55.756Z,1010.75
2022-08-07T00:26:00.363Z,1010.74
2022-08-07T00:27:06.215Z,1010.68
2022-08-07T00:27:56.745Z,1010.72
2022-08-07T00:28:57.007Z,1010.71
2022-08-07T00:29:55.666Z,1010.66
2022-08-07T00:30:55.649Z,1010.66
2022-08-07T00:31:55.638Z,1010.68
2022-08-07T00:32:55.673Z,1010.69
2022-08-07T00:33:55.612Z,1010.66
2022-08-07T00:34:55.651Z,1010.67
2022-08-07T00:35:55.580Z,1010.69
2022-08-07T00:36:55.596Z,1010.66
2022-08-07T00:37:55.579Z,1010.64
2022-08-07T00:38:55.546Z,1010.70
2022-08-07T00:39:55.584Z,1010.67
2022-08-07T00:40:55.529Z,1010.67
2022-08-07T00:42:01.846Z,1010.67
2022-08-07T00:42:56.517Z,1010.61
2022-08-07T00:44:01.747Z,1010.56
2022-08-07T00:44:56.499Z,1010.54
2022-08-07T00:45:55.459Z,1010.56
2022-08-07T00:46:55.448Z,1010.57
2022-08-07T00:48:08.814Z,1010.59
2022-08-07T00:48:56.495Z,1010.59
2022-08-07T00:50:20.545Z,1010.61
2022-08-07T00:50:56.410Z,1010.63
2022-08-07T00:51:57.196Z,1010.63
2022-08-07T00:52:55.407Z,1010.60
2022-08-07T00:53:55.992Z,1010.61
2022-08-07T00:54:55.337Z,1010.60
2022-08-07T00:56:00.678Z,1010.61
2022-08-07T00:56:56.322Z,1010.61
2022-08-07T00:57:56.341Z,1010.62
2022-08-07T00:58:55.281Z,1010.57
2022-08-07T00:59:55.287Z,1010.55
2022-08-07T01:00:55.272Z,1010.57
2022-08-07T01:01:57.806Z,1010.57
2022-08-07T01:02:55.238Z,1010.58
2022-08-07T01:04:00.231Z,1010.60
2022-08-07T01:04:58.335Z,1010.61
2022-08-07T01:05:55.189Z,1010.58
2022-08-07T01:06:55.176Z,1010.57
2022-08-07T01:07:55.263Z,1010.56
2022-08-07T01:08:55.784Z,1010.54
2022-08-07T01:10:06.016Z,1010.56
2022-08-07T01:10:56.575Z,1010.51
2022-08-07T01:12:27.578Z,1010.54
2022-08-07T01:12:56.126Z,1010.53
2022-08-07T01:13:55.995Z,1010.52
2022-08-07T01:14:57.141Z,1010.52
2022-08-07T01:16:05.727Z,1010.47
2022-08-07T01:16:56.055Z,1010.53
2022-08-07T01:17:55.057Z,1010.56
2022-08-07T01:18:55.031Z,1010.56
2022-08-07T01:19:55.009Z,1010.56
2022-08-07T01:20:59.547Z,1010.53
2022-08-07T01:21:55.334Z,1010.54
2022-08-07T01:23:09.108Z,1010.59
2022-08-07T01:23:55.966Z,1010.55
2022-08-07T01:24:54.938Z,1010.57
2022-08-07T01:25:56.307Z,1010.60
2022-08-07T01:26:54.916Z,1010.59
2022-08-07T01:27:54.908Z,1010.61
2022-08-07T01:28:54.884Z,1010.54
2022-08-07T01:29:54.879Z,1010.59
2022-08-07T01:30:54.857Z,1010.61
2022-08-07T01:31:54.846Z,1010.62
2022-08-07T01:32:54.848Z,1010.66
2022-08-07T01:33:55.498Z,1010.65
2022-08-07T01:34:54.832Z,1010.64
2022-08-07T01:36:06.062Z,1010.64
2022-08-07T01:36:58.289Z,1010.65
2022-08-07T01:37:54.809Z,1010.64
2022-08-07T01:38:54.764Z,1010.70
2022-08-07T01:39:54.841Z,1010.60
2022-08-07T01:40:54.752Z,1010.60
2022-08-07T01:42:07.519Z,1010.61
2022-08-07T01:42:58.637Z,1010.62
2022-08-07T01:43:54.705Z,1010.62
2022-08-07T01:44:54.677Z,1010.61
2022-08-07T01:45:54.783Z,1010.58
2022-08-07T01:46:54.667Z,1010.62
2022-08-07T01:48:19.710Z,1010.68
2022-08-07T01:48:55.623Z,1010.63
2022-08-07T01:49:54.888Z,1010.70
2022-08-07T01:50:55.531Z,1010.65
2022-08-07T01:52:03.833Z,1010.66
2022-08-07T01:52:55.605Z,1010.63
2022-08-07T01:54:08.798Z,1010.65
2022-08-07T01:54:55.566Z,1010.63
2022-08-07T01:55:54.566Z,1010.61
2022-08-07T01:56:55.148Z,1010.67
2022-08-07T01:58:06.112Z,1010.64
2022-08-07T01:58:55.506Z,1010.62
2022-08-07T01:59:54.574Z,1010.61
2022-08-07T02:00:57.999Z,1010.63
2022-08-07T02:02:01.617Z,1010.66
2022-08-07T02:03:19.035Z,1010.65
2022-08-07T02:03:55.489Z,1010.57
2022-08-07T02:04:56.565Z,1010.62
2022-08-07T02:06:00.836Z,1010.59
2022-08-07T02:06:55.401Z,1010.58
2022-08-07T02:07:54.433Z,1010.58
2022-08-07T02:08:54.579Z,1010.58
2022-08-07T02:09:58.771Z,1010.60
2022-08-07T02:10:55.246Z,1010.60
2022-08-07T02:12:03.572Z,1010.62
2022-08-07T02:12:55.315Z,1010.65
2022-08-07T02:13:57.316Z,1010.59
2022-08-07T02:14:54.283Z,1010.61
2022-08-07T02:15:54.282Z,1010.64
2022-08-07T02:16:54.295Z,1010.61
2022-08-07T02:17:54.287Z,1010.58
2022-08-07T02:18:54.242Z,1010.56
2022-08-07T02:20:07.525Z,1010.57
2022-08-07T02:20:57.282Z,1010.57
2022-08-07T02:21:56.705Z,1010.57
2022-08-07T02:22:55.128Z,1010.63
2022-08-07T02:23:54.173Z,1010.56
2022-08-07T02:24:54.152Z,1010.56
2022-08-07T02:26:30.698Z,1010.62
2022-08-07T02:26:55.133Z,1010.62
2022-08-07T02:27:54.130Z,1010.63
2022-08-07T02:28:54.131Z,1010.61
2022-08-07T02:29:54.990Z,1010.60
2022-08-07T02:30:54.075Z,1010.56
2022-08-07T02:31:54.625Z,1010.59
2022-08-07T02:33:03.658Z,1010.60
2022-08-07T02:34:03.583Z,1010.60
2022-08-07T02:34:55.024Z,1010.61
2022-08-07T02:36:30.672Z,1010.59
2022-08-07T02:36:54.999Z,1010.62
2022-08-07T02:37:53.999Z,1010.62
2022-08-07T02:38:56.781Z,1010.58
2022-08-07T02:40:02.324Z,1010.62
2022-08-07T02:40:56.001Z,1010.57
2022-08-07T02:41:54.484Z,1010.57
2022-08-07T02:42:53.930Z,1010.59
2022-08-07T02:43:53.912Z,1010.55
2022-08-07T02:44:53.901Z,1010.54
2022-08-07T02:45:58.876Z,1010.54
2022-08-07T02:46:54.860Z,1010.56
2022-08-07T02:47:53.865Z,1010.60
2022-08-07T02:48:54.728Z,1010.55
2022-08-07T02:49:58.784Z,1010.57
2022-08-07T02:50:54.819Z,1010.55
2022-08-07T02:51:53.817Z,1010.52
2022-08-07T02:52:53.812Z,1010.51
2022-08-07T02:53:54.819Z,1010.55
2022-08-07T02:54:53.760Z,1010.52
2022-08-07T02:56:03.291Z,1010.49
2022-08-07T02:56:54.744Z,1010.53
2022-08-07T02:57:53.744Z,1010.57
2022-08-07T02:58:54.253Z,1010.54
2022-08-07T02:59:55.148Z,1010.55
2022-08-07T03:00:54.718Z,1010.56
2022-08-07T03:01:55.481Z,1010.58
2022-08-07T03:02:55.127Z,1010.55
2022-08-07T03:03:53.656Z,1010.55
2022-08-07T03:04:53.640Z,1010.57
2022-08-07T03:05:53.802Z,1010.59
2022-08-07T03:06:53.619Z,1010.54
2022-08-07T03:08:06.835Z,1010.54
2022-08-07T03:08:54.577Z,1010.53
2022-08-07T03:09:53.589Z,1010.48
2022-08-07T03:10:53.560Z,1010.46
2022-08-07T03:11:57.992Z,1010.46
2022-08-07T03:12:54.533Z,1010.44
2022-08-07T03:13:57.709Z,1010.48
2022-08-07T03:14:54.502Z,1010.48
2022-08-07T03:15:56.680Z,1010.49
2022-08-07T03:16:54.508Z,1010.46
2022-08-07T03:17:54.631Z,1010.48
2022-08-07T03:18:53.448Z,1010.48
2022-08-07T03:19:54.608Z,1010.46
2022-08-07T03:20:53.428Z,1010.46
2022-08-07T03:21:53.420Z,1010.41
2022-08-07T03:22:53.406Z,1010.39
2022-08-07T03:24:20.820Z,1010.39
2022-08-07T03:24:54.406Z,1010.43
2022-08-07T03:25:58.359Z,1010.46
2022-08-07T03:26:58.306Z,1010.42
2022-08-07T03:28:09.024Z,1010.38
2022-08-07T03:28:54.335Z,1010.44
2022-08-07T03:29:53.304Z,1010.41
2022-08-07T03:30:53.286Z,1010.45
2022-08-07T03:31:53.288Z,1010.38
2022-08-07T03:32:58.754Z,1010.35
2022-08-07T03:33:54.261Z,1010.33
2022-08-07T03:35:16.980Z,1010.37
2022-08-07T03:35:54.274Z,1010.32
2022-08-07T03:36:53.789Z,1010.30
2022-08-07T03:37:55.078Z,1010.29
2022-08-07T03:38:53.187Z,1010.30
2022-08-07T03:39:59.464Z,1010.29
2022-08-07T03:40:57.358Z,1010.28
2022-08-07T03:41:53.330Z,1010.28
2022-08-07T03:42:53.127Z,1010.32
2022-08-07T03:43:57.487Z,1010.31
2022-08-07T03:44:57.820Z,1010.27
2022-08-07T03:45:54.123Z,1010.32
2022-08-07T03:47:11.300Z,1010.32
2022-08-07T03:47:54.077Z,1010.30
2022-08-07T03:49:03.067Z,1010.33
2022-08-07T03:49:54.043Z,1010.32
2022-08-07T03:50:57.778Z,1010.35
2022-08-07T03:51:55.126Z,1010.29
2022-08-07T03:52:54.000Z,1010.28
2022-08-07T03:54:32.990Z,1010.36
2022-08-07T03:54:57.396Z,1010.36
2022-08-07T03:56:04.100Z,1010.40
2022-08-07T03:57:03.387Z,1010.44
2022-08-07T03:58:33.518Z,1010.41
2022-08-07T03:59:07.889Z,1010.46
2022-08-07T04:00:01.660Z,1010.46
2022-08-07T04:00:56.999Z,1010.47
2022-08-07T04:01:53.957Z,1010.47
2022-08-07T04:02:52.864Z,1010.48
2022-08-07T04:03:55.161Z,1010.50
2022-08-07T04:04:52.846Z,1010.48
2022-08-07T04:05:52.843Z,1010.50
2022-08-07T04:06:54.078Z,1010.46
2022-08-07T04:07:52.805Z,1010.48
2022-08-07T04:08:52.832Z,1010.46
2022-08-07T04:09:52.812Z,1010.50
2022-08-07T04:10:53.912Z,1010.45
2022-08-07T04:12:24.267Z,1010.42
2022-08-07T04:12:53.743Z,1010.40
2022-08-07T04:14:33.079Z,1010.43
2022-08-07T04:14:53.710Z,1010.46
2022-08-07T04:15:52.706Z,1010.47
2022-08-07T04:16:58.499Z,1010.46
2022-08-07T04:18:58.078Z,1010.49
2022-08-07T04:18:59.067Z,1010.46
2022-08-07T04:19:54.415Z,1010.47
2022-08-07T04:20:54.645Z,1010.49
2022-08-07T04:21:59.104Z,1010.47
2022-08-07T04:23:01.756Z,1010.46
2022-08-07T04:24:07.296Z,1010.51
2022-08-07T04:24:53.575Z,1010.46
2022-08-07T04:25:52.578Z,1010.44
2022-08-07T04:26:52.562Z,1010.43
2022-08-07T04:27:59.302Z,1010.37
2022-08-07T04:28:53.527Z,1010.39
2022-08-07T04:30:01.608Z,1010.36
2022-08-07T04:30:56.711Z,1010.42
2022-08-07T04:32:02.984Z,1010.40
2022-08-07T04:32:58.429Z,1010.37
2022-08-07T04:33:54.992Z,1010.41
2022-08-07T04:34:52.465Z,1010.40
2022-08-07T04:35:53.997Z,1010.48
2022-08-07T04:36:52.445Z,1010.43
2022-08-07T04:38:03.587Z,1010.47
2022-08-07T04:38:53.406Z,1010.51
2022-08-07T04:39:52.439Z,1010.53
2022-08-07T04:40:56.786Z,1010.52
2022-08-07T04:41:52.364Z,1010.49
2022-08-07T04:42:52.544Z,1010.50
2022-08-07T04:44:11.964Z,1010.54
2022-08-07T04:44:54.394Z,1010.53
2022-08-07T04:46:01.371Z,1010.53
2022-08-07T04:47:03.912Z,1010.55
2022-08-07T04:48:01.037Z,1010.60
2022-08-07T04:48:53.265Z,1010.58
2022-08-07T04:50:03.476Z,1010.50
2022-08-07T04:50:54.012Z,1010.59
2022-08-07T04:51:52.247Z,1010.47
2022-08-07T04:52:52.833Z,1010.50
2022-08-07T04:54:05.474Z,1010.46
2022-08-07T04:54:53.191Z,1010.48
2022-08-07T04:58:11.092Z,1010.50
2022-08-07T04:58:14.419Z,1010.53
2022-08-07T04:58:14.864Z,1010.48
2022-08-07T05:00:07.897Z,1010.51
2022-08-07T05:00:09.732Z,1010.46
2022-08-07T05:00:53.130Z,1010.49
2022-08-07T05:01:52.129Z,1010.54
2022-08-07T05:02:52.092Z,1010.60
2022-08-07T05:04:06.392Z,1010.58
2022-08-07T05:04:53.055Z,1010.56
2022-08-07T05:05:57.243Z,1010.57
2022-08-07T05:06:53.447Z,1010.60
2022-08-07T05:07:52.065Z,1010.59
2022-08-07T05:09:00.688Z,1010.60
2022-08-07T05:09:53.011Z,1010.60
2022-08-07T05:10:58.344Z,1010.58
2022-08-07T05:11:58.165Z,1010.64
2022-08-07T05:12:55.244Z,1010.63
2022-08-07T05:14:54.136Z,1010.56
2022-08-07T05:15:04.541Z,1010.56
2022-08-07T05:15:53.593Z,1010.59
2022-08-07T05:16:52.621Z,1010.59
2022-08-07T05:17:55.268Z,1010.57
2022-08-07T05:18:51.883Z,1010.58
2022-08-07T05:19:51.863Z,1010.57
2022-08-07T05:20:51.838Z,1010.60
2022-08-07T05:21:58.925Z,1010.55
2022-08-07T05:22:52.972Z,1010.58
2022-08-07T05:23:51.813Z,1010.55
2022-08-07T05:24:51.804Z,1010.48
2022-08-07T05:26:10.882Z,1010.50
2022-08-07T05:26:52.787Z,1010.53
2022-08-07T05:28:16.043Z,1010.49
2022-08-07T05:28:52.746Z,1010.51
2022-08-07T05:29:52.122Z,1010.54
2022-08-07T05:30:52.264Z,1010.54
2022-08-07T05:31:52.966Z,1010.53
2022-08-07T05:32:51.692Z,1010.53
2022-08-07T05:34:04.791Z,1010.58
2022-08-07T05:34:52.667Z,1010.57
2022-08-07T05:35:51.710Z,1010.59
2022-08-07T05:36:52.987Z,1010.53
2022-08-07T05:38:08.739Z,1010.57
2022-08-07T05:38:59.954Z,1010.54
2022-08-07T05:40:07.157Z,1010.47
2022-08-07T05:40:52.661Z,1010.51
2022-08-07T05:42:02.238Z,1010.52
2022-08-07T05:42:56.347Z,1010.50
2022-08-07T05:44:08.298Z,1010.51
2022-08-07T05:45:04.512Z,1010.53
2022-08-07T05:45:52.573Z,1010.52
2022-08-07T05:46:51.520Z,1010.54
2022-08-07T05:48:02.077Z,1010.49
2022-08-07T05:48:58.128Z,1010.46
2022-08-07T05:49:52.470Z,1010.49
2022-08-07T05:50:51.457Z,1010.50
2022-08-07T05:51:51.458Z,1010.45
2022-08-07T05:52:51.437Z,1010.46
2022-08-07T05:54:09.727Z,1010.51
2022-08-07T05:54:55.872Z,1010.53
2022-08-07T05:56:03.386Z,1010.51
2022-08-07T05:56:52.443Z,1010.53
2022-08-07T05:57:51.380Z,1010.53
2022-08-07T05:58:52.858Z,1010.58
2022-08-07T05:59:57.903Z,1010.52
2022-08-07T06:00:52.343Z,1010.52
2022-08-07T06:01:51.420Z,1010.49
2022-08-07T06:02:51.310Z,1010.55
2022-08-07T06:03:57.283Z,1010.54
2022-08-07T06:04:52.283Z,1010.51
2022-08-07T06:05:56.524Z,1010.49
2022-08-07T06:06:56.784Z,1010.53
2022-08-07T06:08:12.339Z,1010.50
2022-08-07T06:08:52.233Z,1010.48
2022-08-07T06:10:05.764Z,1010.51
2022-08-07T06:10:54.865Z,1010.42
2022-08-07T06:11:51.207Z,1010.46
2022-08-07T06:12:51.181Z,1010.44
2022-08-07T06:14:12.538Z,1010.45
2022-08-07T06:14:52.163Z,1010.42
2022-08-07T06:15:51.161Z,1010.44
2022-08-07T06:16:55.800Z,1010.44
2022-08-07T06:17:55.131Z,1010.49
2022-08-07T06:18:51.740Z,1010.46
2022-08-07T06:20:03.286Z,1010.47
2022-08-07T06:22:15.241Z,1010.38
2022-08-07T06:22:15.858Z,1010.39
2022-08-07T06:23:02.326Z,1010.41
2022-08-07T06:24:46.378Z,1010.44
2022-08-07T06:24:57.723Z,1010.45
2022-08-07T06:25:54.412Z,1010.43
2022-08-07T06:26:52.036Z,1010.46
2022-08-07T06:28:01.467Z,1010.44
2022-08-07T06:28:52.887Z,1010.44
2022-08-07T06:29:50.966Z,1010.42
2022-08-07T06:30:52.862Z,1010.43
2022-08-07T06:31:50.977Z,1010.46
2022-08-07T06:32:50.938Z,1010.52
2022-08-07T06:33:50.915Z,1010.47
2022-08-07T06:34:51.002Z,1010.46
2022-08-07T06:36:06.682Z,1010.49
2022-08-07T06:36:52.548Z,1010.53
2022-08-07T06:37:53.010Z,1010.51
2022-08-07T06:38:59.248Z,1010.49
2022-08-07T06:40:16.777Z,1010.52
2022-08-07T06:40:52.011Z,1010.43
2022-08-07T06:42:01.616Z,1010.47
2022-08-07T06:42:51.830Z,1010.48
2022-08-07T06:43:50.796Z,1010.47
2022-08-07T06:44:51.808Z,1010.48
2022-08-07T06:45:50.784Z,1010.44
2022-08-07T06:46:53.829Z,1010.44
2022-08-07T06:47:58.922Z,1010.49
2022-08-07T06:48:51.739Z,1010.43
2022-08-07T06:49:58.635Z,1010.43
2022-08-07T06:50:51.727Z,1010.42
2022-08-07T06:51:50.719Z,1010.43
2022-08-07T06:52:52.990Z,1010.41
2022-08-07T06:55:33.378Z,1010.38
2022-08-07T06:55:34.246Z,1010.38
2022-08-07T06:56:00.105Z,1010.38
2022-08-07T06:56:51.691Z,1010.40
2022-08-07T06:57:56.378Z,1010.37
2022-08-07T07:00:12.385Z,1010.34
2022-08-07T07:00:12.928Z,1010.37
2022-08-07T07:00:52.795Z,1010.35
2022-08-07T07:01:51.079Z,1010.35
2022-08-07T07:02:54.039Z,1010.39
2022-08-07T07:03:55.151Z,1010.36
2022-08-07T07:04:54.720Z,1010.43
2022-08-07T07:06:03.253Z,1010.40
2022-08-07T07:07:00.131Z,1010.38
2022-08-07T07:07:59.604Z,1010.36
2022-08-07T07:08:51.537Z,1010.40
2022-08-07T07:09:50.784Z,1010.36
2022-08-07T07:10:56.673Z,1010.35
2022-08-07T07:12:07.516Z,1010.31
2022-08-07T07:12:53.518Z,1010.34
2022-08-07T07:13:58.091Z,1010.33
2022-08-07T07:14:51.451Z,1010.34
2022-08-07T07:15:51.870Z,1010.34
2022-08-07T07:16:51.178Z,1010.27
2022-08-07T07:17:52.229Z,1010.33
2022-08-07T07:18:50.384Z,1010.35
2022-08-07T07:19:57.774Z,1010.37
2022-08-07T07:20:51.367Z,1010.34
2022-08-07T07:22:05.348Z,1010.36
2022-08-07T07:24:06.409Z,1010.39
2022-08-07T07:24:08.734Z,1010.37
2022-08-07T07:24:58.390Z,1010.36
2022-08-07T07:26:32.443Z,1010.30
2022-08-07T07:26:52.253Z,1010.32
2022-08-07T07:27:55.487Z,1010.28
2022-08-07T07:29:56.608Z,1010.28
2022-08-07T07:30:09.182Z,1010.28
2022-08-07T07:30:51.264Z,1010.30
2022-08-07T07:31:50.218Z,1010.30
2022-08-07T07:32:50.254Z,1010.29
2022-08-07T07:33:56.474Z,1010.28
2022-08-07T07:34:51.189Z,1010.25
2022-08-07T07:36:04.605Z,1010.25
2022-08-07T07:36:54.004Z,1010.21
2022-08-07T07:38:02.926Z,1010.20
2022-08-07T07:38:51.131Z,1010.24
2022-08-07T07:39:54.993Z,1010.22
2022-08-07T07:40:51.121Z,1010.22
2022-08-07T07:41:50.351Z,1010.26
2022-08-07T07:42:54.333Z,1010.23
2022-08-07T07:44:16.762Z,1010.22
2022-08-07T07:44:51.070Z,1010.21
2022-08-07T07:46:36.936Z,1010.22
2022-08-07T07:46:57.283Z,1010.19
2022-08-07T07:47:52.758Z,1010.18
2022-08-07T07:48:50.053Z,1010.18
2022-08-07T07:50:35.668Z,1010.14
2022-08-07T07:50:51.008Z,1010.15
2022-08-07T07:51:58.531Z,1010.15
2022-08-07T07:52:50.964Z,1010.14
2022-08-07T07:53:52.050Z,1010.13
2022-08-07T07:54:51.500Z,1010.13
2022-08-07T07:55:56.192Z,1010.14
2022-08-07T07:56:50.923Z,1010.09
2022-08-07T07:57:53.149Z,1010.03
2022-08-07T07:58:50.627Z,1010.04
2022-08-07T07:59:52.604Z,1010.04
2022-08-07T08:00:54.057Z,1010.03
2022-08-07T08:02:03.296Z,1009.99
2022-08-07T08:03:04.916Z,1010.02
2022-08-07T08:04:05.955Z,1009.99
2022-08-07T08:04:50.911Z,1009.95
2022-08-07T08:05:54.372Z,1010.00
2022-08-07T08:06:52.202Z,1010.00
2022-08-07T08:07:59.892Z,1009.99
2022-08-07T08:08:50.779Z,1009.98
2022-08-07T08:09:52.476Z,1009.98
2022-08-07T08:10:50.800Z,1009.95
2022-08-07T08:12:02.245Z,1009.95
2022-08-07T08:12:59.231Z,1009.95
2022-08-07T08:13:54.754Z,1009.99
2022-08-07T08:14:49.715Z,1009.97
2022-08-07T08:15:59.118Z,1010.00
2022-08-07T08:16:50.936Z,1009.98
2022-08-07T08:18:17.943Z,1009.97
2022-08-07T08:18:50.666Z,1009.97
2022-08-07T08:20:17.733Z,1009.93
2022-08-07T08:20:50.639Z,1009.93
2022-08-07T08:21:55.375Z,1009.94
2022-08-07T08:22:54.097Z,1009.92
2022-08-07T08:23:50.611Z,1009.96
2022-08-07T08:24:51.310Z,1009.94
2022-08-07T08:25:50.584Z,1009.99
2022-08-07T08:26:50.489Z,1009.99
2022-08-07T08:27:56.475Z,1009.95
2022-08-07T08:28:50.637Z,1009.96
2022-08-07T08:29:55.594Z,1009.94
2022-08-07T08:30:50.963Z,1009.96
2022-08-07T08:31:58.864Z,1009.94
2022-08-07T08:32:50.493Z,1009.96
2022-08-07T08:33:55.563Z,1009.93
2022-08-07T08:34:50.455Z,1009.93
2022-08-07T08:35:50.009Z,1009.92
2022-08-07T08:36:49.433Z,1009.95
2022-08-07T08:38:01.311Z,1009.94
2022-08-07T08:38:50.407Z,1009.91
2022-08-07T08:39:54.994Z,1009.92
2022-08-07T08:40:50.395Z,1009.94
2022-08-07T08:41:57.834Z,1009.88
2022-08-07T08:42:51.562Z,1009.86
2022-08-07T08:43:58.722Z,1009.84
2022-08-07T08:44:50.335Z,1009.86
2022-08-07T08:45:59.562Z,1009.79
2022-08-07T08:46:50.307Z,1009.82
2022-08-07T08:47:52.118Z,1009.85
2022-08-07T08:48:50.900Z,1009.82
2022-08-07T08:50:04.814Z,1009.84
2022-08-07T08:50:51.677Z,1009.77
2022-08-07T08:52:14.437Z,1009.75
2022-08-07T08:52:53.743Z,1009.77
2022-08-07T08:53:49.234Z,1009.81
2022-08-07T08:54:49.207Z,1009.77
2022-08-07T08:55:53.812Z,1009.76
2022-08-07T08:56:50.187Z,1009.70
2022-08-07T08:57:49.178Z,1009.75
2022-08-07T08:58:50.658Z,1009.74
2022-08-07T08:59:50.366Z,1009.71
2022-08-07T09:00:52.629Z,1009.79
2022-08-07T09:01:49.712Z,1009.72
2022-08-07T09:02:49.559Z,1009.68
2022-08-07T09:03:52.631Z,1009.71
2022-08-07T09:04:49.098Z,1009.69
2022-08-07T09:05:49.092Z,1009.70
2022-08-07T09:06:49.076Z,1009.67
2022-08-07T09:07:57.693Z,1009.65
2022-08-07T09:08:50.032Z,1009.69
2022-08-07T09:09:49.023Z,1009.66
2022-08-07T09:10:50.037Z,1009.60
2022-08-07T09:11:55.553Z,1009.62
2022-08-07T09:12:53.124Z,1009.64
2022-08-07T09:13:49.341Z,1009.62
2022-08-07T09:14:50.586Z,1009.62
2022-08-07T09:16:25.686Z,1009.63
2022-08-07T09:16:49.950Z,1009.61
2022-08-07T09:17:59.596Z,1009.61
2022-08-07T09:18:53.444Z,1009.59
2022-08-07T09:19:53.487Z,1009.58
2022-08-07T09:20:58.042Z,1009.56
2022-08-07T09:22:10.084Z,1009.51
2022-08-07T09:24:32.198Z,1009.58
2022-08-07T09:24:33.685Z,1009.57
2022-08-07T09:24:59.775Z,1009.52
2022-08-07T09:25:53.480Z,1009.63
2022-08-07T09:26:51.089Z,1009.61
2022-08-07T09:27:59.884Z,1009.59
2022-08-07T09:30:00.734Z,1009.58
2022-08-07T09:30:06.308Z,1009.60
2022-08-07T09:30:54.585Z,1009.56
2022-08-07T09:31:49.743Z,1009.54
2022-08-07T09:32:48.733Z,1009.55
2022-08-07T09:33:57.740Z,1009.51
2022-08-07T09:34:54.041Z,1009.52
2022-08-07T09:36:04.798Z,1009.54
2022-08-07T09:36:49.984Z,1009.49
2022-08-07T09:37:54.051Z,1009.49
2022-08-07T09:38:50.151Z,1009.41
2022-08-07T09:39:54.266Z,1009.40
2022-08-07T09:40:50.171Z,1009.29
2022-08-07T09:41:58.638Z,1009.37
2022-08-07T09:42:50.371Z,1009.37
2022-08-07T09:44:06.000Z,1009.41
2022-08-07T09:47:24.969Z,1009.45
2022-08-07T09:47:49.987Z,1009.41
2022-08-07T09:47:50.581Z,1009.41
2022-08-07T09:48:01.681Z,1009.39
2022-08-07T09:49:59.701Z,1009.41
2022-08-07T09:50:01.045Z,1009.46
2022-08-07T09:50:51.414Z,1009.38
2022-08-07T09:52:09.972Z,1009.32
2022-08-07T09:52:51.824Z,1009.27
2022-08-07T09:53:56.118Z,1009.28
2022-08-07T09:54:49.459Z,1009.24
2022-08-07T09:56:04.741Z,1009.25
2022-08-07T09:56:49.441Z,1009.27
2022-08-07T09:57:48.435Z,1009.27
2022-08-07T09:58:48.769Z,1009.22
2022-08-07T10:00:00.754Z,1009.20
2022-08-07T10:00:50.560Z,1009.24
2022-08-07T10:01:51.326Z,1009.25
2022-08-07T10:02:55.072Z,1009.22
2022-08-07T10:04:05.163Z,1009.20
2022-08-07T10:04:53.399Z,1009.16
2022-08-07T10:05:59.407Z,1009.14
2022-08-07T10:06:55.716Z,1009.10
2022-08-07T10:07:53.056Z,1009.09
2022-08-07T10:08:49.538Z,1009.11
2022-08-07T10:10:01.050Z,1009.10
2022-08-07T10:11:17.027Z,1009.04
2022-08-07T10:12:02.101Z,1009.03
2022-08-07T10:12:53.309Z,1009.00
2022-08-07T10:14:00.458Z,1008.99
2022-08-07T10:14:55.142Z,1009.00
2022-08-07T10:15:49.185Z,1009.00
2022-08-07T10:16:48.230Z,1008.99
2022-08-07T10:18:01.804Z,1008.98
2022-08-07T10:18:49.202Z,1008.92
2022-08-07T10:19:48.153Z,1008.96
2022-08-07T10:20:50.194Z,1008.91
2022-08-07T10:22:16.332Z,1008.93
2022-08-07T10:22:50.820Z,1008.93
2022-08-07T10:24:05.620Z,1008.93
2022-08-07T10:24:49.086Z,1008.97
2022-08-07T10:25:48.080Z,1008.94
2022-08-07T10:26:53.349Z,1008.87
2022-08-07T10:27:48.038Z,1008.85
2022-08-07T10:28:49.392Z,1008.84
2022-08-07T10:29:51.757Z,1008.87
2022-08-07T10:30:49.018Z,1008.83
2022-08-07T10:31:49.635Z,1008.83
2022-08-07T10:32:53.306Z,1008.81
2022-08-07T10:34:14.471Z,1008.87
2022-08-07T10:34:48.998Z,1008.85
2022-08-07T10:35:57.514Z,1008.87
2022-08-07T10:36:48.942Z,1008.78
2022-08-07T10:38:00.248Z,1008.78
2022-08-07T10:38:49.961Z,1008.73
2022-08-07T10:40:03.363Z,1008.65
2022-08-07T10:40:48.867Z,1008.66
2022-08-07T10:41:54.507Z,1008.65
2022-08-07T10:42:50.000Z,1008.65
2022-08-07T10:43:47.859Z,1008.61
2022-08-07T10:44:47.828Z,1008.56
2022-08-07T10:45:57.995Z,1008.57
2022-08-07T10:46:48.790Z,1008.60
2022-08-07T10:47:53.929Z,1008.63
2022-08-07T10:48:48.813Z,1008.54
2022-08-07T10:49:50.795Z,1008.57
2022-08-07T10:50:50.128Z,1008.50
2022-08-07T10:52:01.801Z,1008.53
2022-08-07T10:52:51.452Z,1008.42
2022-08-07T10:53:47.717Z,1008.40
2022-08-07T10:54:53.366Z,1008.46
2022-08-07T10:55:48.693Z,1008.46
2022-08-07T10:56:47.662Z,1008.47
2022-08-07T10:57:56.033Z,1008.45
2022-08-07T10:58:59.424Z,1008.44
2022-08-07T10:59:48.672Z,1008.51
2022-08-07T11:00:50.165Z,1008.45
2022-08-07T11:01:51.515Z,1008.49
2022-08-07T11:02:49.300Z,1008.44
2022-08-07T11:03:52.804Z,1008.43
2022-08-07T11:04:48.585Z,1008.37
2022-08-07T11:05:50.554Z,1008.33
2022-08-07T11:06:47.570Z,1008.37
2022-08-07T11:07:58.550Z,1008.41
2022-08-07T11:08:48.526Z,1008.35
2022-08-07T11:10:07.341Z,1008.36
2022-08-07T11:10:52.383Z,1008.33
2022-08-07T11:11:51.967Z,1008.29
2022-08-07T11:12:49.110Z,1008.31
2022-08-07T11:14:43.503Z,1008.33
2022-08-07T11:14:57.493Z,1008.26
2022-08-07T11:15:54.561Z,1008.21
2022-08-07T11:16:52.750Z,1008.16
2022-08-07T11:17:48.722Z,1008.16
2022-08-07T11:18:50.734Z,1008.22
2022-08-07T11:19:47.397Z,1008.22
2022-08-07T11:20:47.367Z,1008.22
2022-08-07T11:21:47.379Z,1008.14
2022-08-07T11:22:47.344Z,1008.18
2022-08-07T11:23:48.457Z,1008.13
2022-08-07T11:24:47.355Z,1008.13
2022-08-07T11:25:49.916Z,1008.15
2022-08-07T11:26:50.120Z,1008.12
2022-08-07T11:28:01.410Z,1008.10
2022-08-07T11:28:55.257Z,1008.08
2022-08-07T11:30:09.963Z,1008.14
2022-08-07T11:30:48.256Z,1008.08
2022-08-07T11:31:47.230Z,1008.10
2022-08-07T11:32:47.287Z,1008.10
2022-08-07T11:33:55.397Z,1008.09
2022-08-07T11:34:48.198Z,1008.05
2022-08-07T11:35:59.639Z,1008.02
2022-08-07T11:36:49.654Z,1008.04
2022-08-07T11:38:09.954Z,1008.01
2022-08-07T11:38:50.668Z,1008.04
2022-08-07T11:40:01.006Z,1008.01
2022-08-07T11:40:49.807Z,1008.01
2022-08-07T11:42:02.393Z,1008.03
2022-08-07T11:42:48.112Z,1007.94
2022-08-07T11:44:11.748Z,1008.00
2022-08-07T11:44:52.493Z,1007.93
2022-08-07T11:45:53.089Z,1007.90
2022-08-07T11:46:48.668Z,1007.84
2022-08-07T11:47:56.438Z,1007.86
2022-08-07T11:49:28.600Z,1007.94
2022-08-07T11:50:11.406Z,1007.86
2022-08-07T11:50:57.356Z,1007.86
2022-08-07T11:51:47.996Z,1007.89
2022-08-07T11:52:46.963Z,1007.82
2022-08-07T11:54:00.656Z,1007.89
2022-08-07T11:54:54.521Z,1007.84
2022-08-07T11:56:14.045Z,1007.85
2022-08-07T11:56:53.160Z,1007.90
2022-08-07T11:57:58.494Z,1007.90
2022-08-07T11:58:49.595Z,1007.90
2022-08-07T12:00:11.953Z,1007.83
2022-08-07T12:00:53.637Z,1007.82
2022-08-07T12:02:00.815Z,1007.79
2022-08-07T12:02:52.710Z,1007.75
2022-08-07T12:03:47.947Z,1007.82
2022-08-07T12:04:46.824Z,1007.78
2022-08-07T12:05:48.865Z,1007.78